This is the latest recevied weather packets stored in our database for station/object IR1BY-3. If no packets are shown the sender has not sent any weather packets the latest 10 day(s).
| Time | Temp. | Humidity | Pressure | Rain* | Wind** | Luminosity | Snow |
|---|---|---|---|---|---|---|---|
| 1777743234 | 14.44° C | 99% | 1020.2 hPa | - | - | - | - |
| 1777741434 | 15.56° C | 99% | 1020.4 hPa | - | - | - | - |
| 1777739633 | 17.22° C | 99% | 1020.6 hPa | - | - | - | - |
| 1777737833 | 18.89° C | 99% | 1020.8 hPa | - | - | - | - |
| 1777727514 | 31.11° C | 99% | 1022.5 hPa | - | - | - | - |
| 1777723905 | 32.78° C | 99% | 1023.1 hPa | - | - | - | - |
| 1777722101 | 29.44° C | 99% | 1023.4 hPa | - | - | - | - |
| 1777720297 | 21.11° C | 99% | 1023.6 hPa | - | - | - | - |
| 1777718492 | 32.22° C | 99% | 1023.9 hPa | - | - | - | - |
| 1777716688 | 35.56° C | 99% | 1024.3 hPa | - | - | - | - |
| 1777714884 | 37.22° C | 99% | 1024.7 hPa | - | - | - | - |
| 1777713079 | 32.22° C | 99% | 1024.9 hPa | - | - | - | - |
| 1777709471 | 29.44° C | 99% | 1025.2 hPa | - | - | - | - |
| 1777707666 | 27.78° C | 99% | 1025.1 hPa | - | - | - | - |
| 1777704024 | 18.33° C | 99% | 1025.2 hPa | - | - | - | - |
| 1777702220 | 13.33° C | 99% | 1025.1 hPa | - | - | - | - |
| 1777700416 | 10.56° C | 99% | 1025.1 hPa | - | - | - | - |
| 1777698613 | 9.44° C | 99% | 1025 hPa | - | - | - | - |
| 1777696808 | 8.33° C | 99% | 1024.9 hPa | - | - | - | - |
| 1777695004 | 7.78° C | 99% | 1024.8 hPa | - | - | - | - |
| 1777693200 | 7.78° C | 99% | 1024.7 hPa | - | - | - | - |
| 1777691396 | 7.78° C | 99% | 1024.9 hPa | - | - | - | - |
| 1777689591 | 8.33° C | 99% | 1024.8 hPa | - | - | - | - |
| 1777687787 | 8.33° C | 99% | 1024.8 hPa | - | - | - | - |
| 1777685983 | 8.89° C | 99% | 1024.8 hPa | - | - | - | - |
* Rain since midnight (hover to see other rain measurements)
** Current wind speed in m/s (hover to see current wind gust speed)